createdAt,value
2023-03-16T00:01:30.976Z,69.69
2023-03-16T00:04:03.124Z,69.79
2023-03-16T00:06:36.818Z,69.86
2023-03-16T00:09:10.172Z,69.80
2023-03-16T00:11:42.299Z,69.77
2023-03-16T00:14:14.360Z,69.96
2023-03-16T00:16:47.956Z,70.19
2023-03-16T00:19:20.060Z,70.14
2023-03-16T00:21:52.529Z,70.43
2023-03-16T00:24:25.327Z,70.50
2023-03-16T00:26:57.245Z,70.61
2023-03-16T00:29:29.463Z,70.54
2023-03-16T00:32:01.436Z,70.60
2023-03-16T00:34:35.010Z,71.06
2023-03-16T00:37:07.089Z,70.63
2023-03-16T00:39:39.353Z,70.85
2023-03-16T00:42:12.809Z,70.85
2023-03-16T00:44:45.027Z,70.85
2023-03-16T00:47:17.020Z,71.01
2023-03-16T00:49:48.987Z,71.16
2023-03-16T00:52:22.369Z,71.57
2023-03-16T00:54:54.676Z,71.28
2023-03-16T00:57:27.888Z,71.66
2023-03-16T01:00:00.652Z,72.04
2023-03-16T01:02:32.567Z,71.87
2023-03-16T01:05:06.090Z,71.74
2023-03-16T01:07:38.013Z,72.18
2023-03-16T01:10:12.903Z,71.83
2023-03-16T01:12:46.217Z,71.91
2023-03-16T01:15:18.190Z,71.75
2023-03-16T01:17:50.060Z,72.03
2023-03-16T01:20:22.479Z,71.86
2023-03-16T01:22:54.357Z,72.03
2023-03-16T01:25:26.420Z,71.86
2023-03-16T01:27:58.218Z,71.89
2023-03-16T01:30:30.558Z,71.89
2023-03-16T01:33:02.457Z,71.72
2023-03-16T01:35:34.861Z,71.81
2023-03-16T01:38:06.760Z,71.74
2023-03-16T01:40:39.318Z,71.78
2023-03-16T01:43:14.064Z,71.88
2023-03-16T01:46:18.464Z,71.84
2023-03-16T01:48:55.603Z,71.86
2023-03-16T01:51:31.002Z,71.98
2023-03-16T01:54:05.850Z,71.77
2023-03-16T01:56:42.088Z,71.81
2023-03-16T01:59:17.807Z,71.80
2023-03-16T02:01:52.171Z,71.67
2023-03-16T02:04:30.742Z,71.53
2023-03-16T02:07:03.118Z,71.72
2023-03-16T02:09:36.338Z,71.73
2023-03-16T02:12:10.029Z,72.00
2023-03-16T02:14:41.753Z,72.09
2023-03-16T02:17:14.104Z,72.30
2023-03-16T02:19:52.707Z,72.17
2023-03-16T02:22:25.543Z,71.99
2023-03-16T02:24:57.742Z,72.05
2023-03-16T02:27:35.714Z,72.05
2023-03-16T02:30:11.727Z,72.15
2023-03-16T02:32:44.294Z,72.04
2023-03-16T02:35:16.172Z,72.07
2023-03-16T02:37:48.243Z,72.18
2023-03-16T02:40:28.432Z,72.05
2023-03-16T02:43:04.034Z,72.02
2023-03-16T02:45:40.661Z,72.14
2023-03-16T02:48:15.376Z,72.35
2023-03-16T02:50:50.224Z,72.40
2023-03-16T02:53:22.205Z,72.45
2023-03-16T02:55:53.998Z,72.46
2023-03-16T02:58:27.882Z,72.50
2023-03-16T03:01:00.298Z,72.52
2023-03-16T03:03:34.760Z,72.59
2023-03-16T03:06:07.070Z,72.56
2023-03-16T03:08:38.970Z,72.60
2023-03-16T03:11:10.962Z,72.55
2023-03-16T03:13:44.888Z,72.58
2023-03-16T03:16:17.033Z,72.72
2023-03-16T03:18:48.942Z,72.65
2023-03-16T03:21:21.153Z,72.63
2023-03-16T03:23:54.130Z,72.82
2023-03-16T03:26:26.015Z,73.09
2023-03-16T03:28:58.109Z,73.12
2023-03-16T03:31:29.911Z,73.17
2023-03-16T03:34:06.678Z,73.34
2023-03-16T03:36:38.640Z,73.33
2023-03-16T03:39:10.873Z,73.43
2023-03-16T03:41:42.601Z,73.28
2023-03-16T03:44:14.924Z,73.29
2023-03-16T03:46:46.864Z,73.51
2023-03-16T03:49:19.243Z,73.46
2023-03-16T03:51:51.426Z,73.49
2023-03-16T03:54:23.708Z,73.57
2023-03-16T03:56:55.555Z,73.56
2023-03-16T03:59:27.827Z,73.59
2023-03-16T04:01:59.799Z,73.57
2023-03-16T04:04:32.055Z,73.71
2023-03-16T04:07:04.257Z,73.74
2023-03-16T04:09:36.517Z,73.75
2023-03-16T04:12:09.407Z,73.90
2023-03-16T04:14:41.512Z,74.12
2023-03-16T04:17:13.588Z,74.10
2023-03-16T04:19:45.879Z,74.09
2023-03-16T04:22:18.008Z,74.12
2023-03-16T04:24:50.148Z,74.12
2023-03-16T04:27:21.979Z,74.27
2023-03-16T04:30:00.102Z,74.46
2023-03-16T04:32:32.165Z,74.49
2023-03-16T04:35:04.604Z,74.74
2023-03-16T04:37:36.479Z,74.74
2023-03-16T04:40:16.661Z,74.80
2023-03-16T04:42:49.190Z,74.85
2023-03-16T04:45:21.260Z,74.86
2023-03-16T04:47:53.139Z,75.20
2023-03-16T04:50:26.204Z,75.23
2023-03-16T04:52:58.272Z,75.26
2023-03-16T04:55:31.404Z,75.41
2023-03-16T04:58:03.205Z,75.54
2023-03-16T05:00:35.334Z,75.81
2023-03-16T05:03:07.486Z,75.72
2023-03-16T05:05:39.779Z,75.82
2023-03-16T05:08:12.385Z,75.93
2023-03-16T05:10:44.821Z,76.19
2023-03-16T05:13:16.810Z,75.85
2023-03-16T05:15:49.009Z,76.04
2023-03-16T05:18:21.631Z,76.17
2023-03-16T05:20:56.028Z,76.19
2023-03-16T05:23:28.114Z,76.02
2023-03-16T05:26:01.208Z,76.15
2023-03-16T05:28:33.148Z,76.02
2023-03-16T05:31:05.148Z,76.08
2023-03-16T05:33:37.007Z,75.95
2023-03-16T05:36:09.842Z,76.03
2023-03-16T05:38:42.665Z,76.19
2023-03-16T05:41:15.004Z,76.30
2023-03-16T05:43:46.867Z,76.53
2023-03-16T05:46:20.763Z,77.13
2023-03-16T05:48:52.801Z,77.19
2023-03-16T05:51:26.709Z,77.12
2023-03-16T05:53:58.916Z,77.37
2023-03-16T05:56:31.452Z,77.40
2023-03-16T05:59:03.821Z,77.64
2023-03-16T06:01:36.171Z,77.36
2023-03-16T06:04:08.342Z,77.65
2023-03-16T06:06:40.794Z,77.81
2023-03-16T06:09:12.686Z,77.90
2023-03-16T06:11:44.762Z,77.92
2023-03-16T06:14:16.517Z,77.96
2023-03-16T06:16:48.517Z,78.37
2023-03-16T06:19:20.323Z,78.38
2023-03-16T06:21:52.451Z,78.25
2023-03-16T06:24:24.269Z,78.29
2023-03-16T06:26:56.203Z,78.18
2023-03-16T06:29:28.023Z,78.15
2023-03-16T06:32:00.124Z,78.08
2023-03-16T06:34:31.903Z,77.92
2023-03-16T06:37:04.213Z,77.93
2023-03-16T06:39:36.176Z,77.79
2023-03-16T06:42:08.549Z,77.64
2023-03-16T06:44:40.472Z,77.64
2023-03-16T06:47:12.471Z,77.65
2023-03-16T06:49:44.262Z,77.49
2023-03-16T06:52:16.721Z,77.34
2023-03-16T06:54:48.511Z,77.21
2023-03-16T06:57:20.752Z,77.10
2023-03-16T06:59:52.508Z,77.25
2023-03-16T07:02:24.711Z,76.96
2023-03-16T07:04:57.695Z,76.81
2023-03-16T07:07:30.218Z,76.87
2023-03-16T07:10:02.646Z,76.74
2023-03-16T07:12:35.156Z,76.60
2023-03-16T07:15:08.082Z,76.46
2023-03-16T07:17:40.198Z,76.45
2023-03-16T07:20:14.255Z,76.14
2023-03-16T07:22:46.403Z,76.07
2023-03-16T07:25:18.434Z,75.89
2023-03-16T07:27:50.830Z,75.79
2023-03-16T07:30:23.024Z,75.75
2023-03-16T07:32:55.103Z,75.75
2023-03-16T07:35:27.685Z,75.37
2023-03-16T07:37:59.862Z,75.15
2023-03-16T07:40:34.616Z,75.23
2023-03-16T07:43:06.713Z,75.21
2023-03-16T07:45:38.792Z,75.00
2023-03-16T07:48:11.007Z,74.93
2023-03-16T07:50:42.815Z,74.78
2023-03-16T07:53:15.671Z,74.54
2023-03-16T07:55:47.826Z,74.40
2023-03-16T07:58:19.960Z,74.02
2023-03-16T08:00:52.014Z,73.67
2023-03-16T08:03:24.217Z,73.80
2023-03-16T08:05:56.849Z,73.28
2023-03-16T08:08:28.807Z,72.90
2023-03-16T08:11:00.897Z,72.58
2023-03-16T08:13:35.618Z,71.99
2023-03-16T08:16:10.512Z,71.05
2023-03-16T08:18:42.841Z,70.12
2023-03-16T08:21:15.412Z,70.51
2023-03-16T08:23:49.780Z,71.14
2023-03-16T08:26:22.336Z,70.98
2023-03-16T08:28:55.335Z,71.68
2023-03-16T08:31:27.351Z,71.87
2023-03-16T08:33:59.742Z,71.60
2023-03-16T08:36:32.121Z,71.20
2023-03-16T08:39:07.585Z,69.57
2023-03-16T08:41:40.994Z,67.45
2023-03-16T08:44:13.132Z,67.13
2023-03-16T08:46:45.080Z,65.00
2023-03-16T08:49:17.548Z,66.28
2023-03-16T08:51:49.370Z,61.91
2023-03-16T08:54:21.340Z,58.80
2023-03-16T08:56:53.255Z,58.91
2023-03-16T08:59:30.545Z,59.83
2023-03-16T09:02:04.521Z,60.16
2023-03-16T09:04:37.781Z,59.21
2023-03-16T09:07:10.222Z,59.56
2023-03-16T09:09:42.477Z,54.81
2023-03-16T09:12:14.624Z,57.51
2023-03-16T09:14:46.821Z,58.97
2023-03-16T09:17:18.748Z,59.84
2023-03-16T09:19:52.902Z,58.89
2023-03-16T09:22:26.401Z,56.13
2023-03-16T09:24:58.276Z,57.06
2023-03-16T09:27:30.852Z,56.43
2023-03-16T09:30:03.632Z,57.49
2023-03-16T09:32:37.626Z,55.91
2023-03-16T09:35:08.968Z,52.64
2023-03-16T09:37:45.471Z,53.02
2023-03-16T09:40:26.626Z,53.85
2023-03-16T09:43:08.679Z,51.80
2023-03-16T09:45:46.623Z,49.48
2023-03-16T09:48:21.069Z,48.96
2023-03-16T09:50:53.354Z,50.12
2023-03-16T09:53:28.713Z,50.49
2023-03-16T09:56:06.725Z,49.55
2023-03-16T09:58:39.460Z,50.00
2023-03-16T10:01:17.534Z,49.34
2023-03-16T10:04:11.062Z,50.55
2023-03-16T10:06:48.341Z,51.33
2023-03-16T10:09:28.657Z,51.58
2023-03-16T10:12:04.051Z,51.85
2023-03-16T10:14:41.499Z,50.07
2023-03-16T10:17:17.864Z,49.68
2023-03-16T10:19:52.697Z,50.46
2023-03-16T10:22:27.363Z,49.43
2023-03-16T10:25:06.014Z,49.49
2023-03-16T10:27:40.167Z,49.68
2023-03-16T10:30:21.802Z,50.64
2023-03-16T10:32:54.753Z,51.40
2023-03-16T10:35:34.215Z,52.75
2023-03-16T10:38:06.852Z,53.44
2023-03-16T10:40:40.884Z,50.97
2023-03-16T10:43:17.268Z,51.19
2023-03-16T10:45:50.076Z,51.34
2023-03-16T10:48:23.403Z,52.02
2023-03-16T10:50:58.400Z,52.69
2023-03-16T10:53:33.304Z,52.21
2023-03-16T10:56:13.817Z,52.19
2023-03-16T10:58:46.466Z,48.21
2023-03-16T11:01:22.496Z,48.44
2023-03-16T11:03:57.355Z,49.55
2023-03-16T11:06:34.012Z,48.66
2023-03-16T11:09:14.108Z,48.89
2023-03-16T11:11:49.696Z,48.64
2023-03-16T11:14:26.517Z,49.99
2023-03-16T11:17:04.471Z,48.87
2023-03-16T11:19:38.313Z,48.96
2023-03-16T11:22:13.862Z,48.29
2023-03-16T11:24:50.516Z,48.48
2023-03-16T11:27:26.341Z,50.09
2023-03-16T11:30:11.662Z,49.85
2023-03-16T11:32:47.223Z,49.98
2023-03-16T11:35:22.155Z,48.93
2023-03-16T11:38:04.645Z,47.10
2023-03-16T11:40:47.665Z,46.88
2023-03-16T11:43:35.064Z,47.55
2023-03-16T11:46:14.215Z,46.43
2023-03-16T11:48:51.268Z,47.81
2023-03-16T11:51:36.604Z,48.77
2023-03-16T11:54:23.129Z,49.61
2023-03-16T11:56:59.167Z,49.56
2023-03-16T11:59:49.010Z,49.81
2023-03-16T12:02:37.850Z,50.68
2023-03-16T12:05:30.496Z,51.46
2023-03-16T12:08:11.394Z,52.46
2023-03-16T12:10:46.852Z,52.69
2023-03-16T12:13:33.837Z,53.41
2023-03-16T12:16:11.072Z,54.05
2023-03-16T12:18:47.901Z,54.79
2023-03-16T12:21:24.653Z,55.60
2023-03-16T12:23:59.887Z,55.55
2023-03-16T12:26:35.358Z,56.14
2023-03-16T12:29:13.805Z,56.14
2023-03-16T12:31:50.246Z,56.12
2023-03-16T12:34:28.795Z,55.95
2023-03-16T12:37:15.790Z,56.33
2023-03-16T12:40:14.635Z,56.44
2023-03-16T12:42:57.740Z,56.30
2023-03-16T12:45:34.264Z,55.47
2023-03-16T12:48:14.668Z,55.60
2023-03-16T12:50:55.432Z,55.32
2023-03-16T12:53:42.943Z,55.25
2023-03-16T12:56:17.718Z,54.91
2023-03-16T12:58:51.724Z,54.76
2023-03-16T13:01:29.622Z,54.32
2023-03-16T13:04:08.045Z,54.18
2023-03-16T13:06:43.547Z,54.39
2023-03-16T13:09:19.608Z,53.43
2023-03-16T13:11:53.408Z,53.96
2023-03-16T13:14:40.418Z,54.15
2023-03-16T13:17:28.433Z,54.51
2023-03-16T13:20:31.824Z,55.10
2023-03-16T13:23:24.202Z,55.48
2023-03-16T13:26:12.417Z,55.34
2023-03-16T13:28:47.255Z,55.64
2023-03-16T13:31:30.354Z,55.33
2023-03-16T13:34:03.976Z,55.50
2023-03-16T13:36:38.133Z,55.70
2023-03-16T13:39:18.825Z,55.90
2023-03-16T13:42:03.392Z,55.82
2023-03-16T13:44:35.038Z,55.67
2023-03-16T13:47:08.566Z,55.63
2023-03-16T13:49:47.495Z,54.97
2023-03-16T13:52:26.253Z,53.79
2023-03-16T13:54:58.619Z,53.32
2023-03-16T13:57:32.207Z,54.36
2023-03-16T14:00:15.748Z,52.21
2023-03-16T14:02:50.865Z,49.45
2023-03-16T14:05:25.969Z,49.06
2023-03-16T14:08:01.081Z,47.60
2023-03-16T14:10:36.054Z,46.56
2023-03-16T14:13:24.070Z,46.88
2023-03-16T14:15:56.700Z,47.71
2023-03-16T14:18:32.430Z,47.88
2023-03-16T14:21:09.283Z,48.74
2023-03-16T14:23:44.602Z,49.40
2023-03-16T14:26:19.460Z,49.86
2023-03-16T14:29:03.274Z,50.54
2023-03-16T14:31:37.009Z,51.21
2023-03-16T14:34:21.394Z,51.66
2023-03-16T14:36:51.771Z,51.78
2023-03-16T14:39:24.026Z,51.58
2023-03-16T14:41:55.932Z,51.59
2023-03-16T14:44:30.903Z,51.45
2023-03-16T14:47:03.759Z,51.05
2023-03-16T14:49:36.551Z,50.51
2023-03-16T14:52:13.738Z,50.35
2023-03-16T14:54:45.893Z,51.03
2023-03-16T14:57:20.266Z,51.58
2023-03-16T14:59:52.188Z,51.81
2023-03-16T15:02:27.816Z,52.04
2023-03-16T15:05:00.702Z,50.77
2023-03-16T15:07:34.348Z,50.86
2023-03-16T15:10:19.027Z,50.76
2023-03-16T15:12:54.574Z,51.39
2023-03-16T15:15:28.590Z,51.92
2023-03-16T15:18:01.232Z,52.15
2023-03-16T15:20:36.048Z,52.76
2023-03-16T15:23:08.043Z,52.82
2023-03-16T15:25:41.418Z,53.10
2023-03-16T15:28:18.382Z,53.09
2023-03-16T15:30:52.638Z,53.48
2023-03-16T15:33:23.334Z,53.52
2023-03-16T15:35:57.718Z,53.61
2023-03-16T15:38:31.620Z,53.52
2023-03-16T15:41:04.167Z,53.36
2023-03-16T15:43:36.016Z,52.86
2023-03-16T15:46:08.153Z,52.44
2023-03-16T15:48:40.578Z,51.91
2023-03-16T15:51:21.391Z,52.03
2023-03-16T15:53:54.999Z,52.54
2023-03-16T15:56:30.346Z,52.73
2023-03-16T15:59:04.637Z,52.83
2023-03-16T16:01:45.081Z,52.56
2023-03-16T16:04:20.056Z,52.49
2023-03-16T16:06:55.224Z,52.74
2023-03-16T16:09:27.762Z,53.11
2023-03-16T16:11:59.912Z,53.28
2023-03-16T16:14:31.946Z,53.46
2023-03-16T16:17:04.335Z,53.84
2023-03-16T16:19:36.387Z,54.25
2023-03-16T16:22:09.927Z,54.39
2023-03-16T16:24:42.050Z,54.98
2023-03-16T16:27:15.099Z,55.74
2023-03-16T16:29:46.877Z,56.63
2023-03-16T16:32:25.000Z,57.66
2023-03-16T16:35:04.169Z,57.88
2023-03-16T16:37:37.142Z,58.14
2023-03-16T16:40:11.249Z,58.87
2023-03-16T16:42:43.599Z,59.61
2023-03-16T16:45:20.879Z,59.65
2023-03-16T16:47:56.260Z,59.95
2023-03-16T16:50:31.390Z,60.39
2023-03-16T16:53:03.994Z,60.24
2023-03-16T16:55:36.260Z,60.29
2023-03-16T16:58:23.581Z,60.08
2023-03-16T17:00:59.136Z,60.63
2023-03-16T17:03:32.134Z,60.68
2023-03-16T17:06:04.167Z,60.39
2023-03-16T17:08:36.995Z,60.66
2023-03-16T17:11:11.056Z,60.22
2023-03-16T17:13:46.342Z,60.37
2023-03-16T17:16:20.622Z,60.61
2023-03-16T17:18:53.904Z,60.70
2023-03-16T17:21:28.697Z,61.04
2023-03-16T17:24:03.132Z,60.90
2023-03-16T17:26:38.328Z,61.09
2023-03-16T17:29:16.356Z,61.18
2023-03-16T17:31:48.401Z,61.60
2023-03-16T17:34:22.839Z,61.89
2023-03-16T17:36:55.923Z,61.82
2023-03-16T17:39:29.527Z,62.02
2023-03-16T17:42:02.805Z,62.19
2023-03-16T17:44:37.278Z,62.22
2023-03-16T17:47:17.450Z,62.29
2023-03-16T17:49:51.018Z,62.45
2023-03-16T17:52:25.493Z,62.45
2023-03-16T17:54:57.673Z,62.56
2023-03-16T17:57:32.132Z,62.69
2023-03-16T18:00:08.980Z,63.09
2023-03-16T18:02:44.810Z,63.01
2023-03-16T18:05:22.220Z,63.14
2023-03-16T18:07:55.015Z,63.51
2023-03-16T18:10:29.242Z,63.54
2023-03-16T18:13:03.579Z,63.50
2023-03-16T18:15:35.016Z,63.42
2023-03-16T18:18:08.584Z,63.56
2023-03-16T18:20:41.490Z,63.73
2023-03-16T18:23:19.716Z,63.71
2023-03-16T18:25:54.728Z,63.69
2023-03-16T18:28:27.527Z,63.58
2023-03-16T18:31:00.235Z,63.69
2023-03-16T18:33:36.033Z,63.74
2023-03-16T18:36:19.240Z,63.72
2023-03-16T18:38:52.681Z,64.05
2023-03-16T18:41:26.833Z,63.97
2023-03-16T18:44:00.808Z,64.10
2023-03-16T18:46:34.944Z,64.18
2023-03-16T18:49:08.816Z,64.14
2023-03-16T18:51:41.796Z,64.21
2023-03-16T18:54:23.746Z,64.36
2023-03-16T18:56:58.713Z,64.65
2023-03-16T18:59:31.647Z,64.60
2023-03-16T19:02:03.847Z,65.03
2023-03-16T19:04:42.095Z,65.32
2023-03-16T19:07:22.201Z,65.20
2023-03-16T19:09:54.324Z,65.10
2023-03-16T19:12:28.363Z,65.04
2023-03-16T19:15:00.914Z,65.15
2023-03-16T19:17:33.898Z,65.08
2023-03-16T19:20:08.555Z,65.05
2023-03-16T19:22:40.416Z,64.95
2023-03-16T19:25:20.330Z,64.82
2023-03-16T19:27:54.109Z,64.83
2023-03-16T19:30:28.599Z,64.80
2023-03-16T19:33:01.588Z,64.90
2023-03-16T19:35:51.080Z,64.82
2023-03-16T19:38:25.063Z,64.94
2023-03-16T19:40:59.294Z,64.81
2023-03-16T19:43:31.490Z,65.02
2023-03-16T19:46:03.977Z,65.16
2023-03-16T19:48:37.464Z,65.10
2023-03-16T19:51:09.797Z,65.20
2023-03-16T19:53:42.399Z,65.34
2023-03-16T19:56:18.545Z,65.43
2023-03-16T19:58:52.042Z,65.41
2023-03-16T20:01:26.971Z,65.52
2023-03-16T20:03:59.782Z,65.63
2023-03-16T20:06:33.451Z,65.75
2023-03-16T20:09:04.208Z,65.81
2023-03-16T20:11:36.340Z,65.74
2023-03-16T20:14:10.638Z,65.82
2023-03-16T20:16:41.315Z,66.01
2023-03-16T20:19:16.915Z,65.94
2023-03-16T20:21:49.023Z,65.88
2023-03-16T20:24:23.374Z,66.10
2023-03-16T20:26:54.085Z,66.01
2023-03-16T20:29:30.533Z,66.17
2023-03-16T20:32:03.935Z,66.20
2023-03-16T20:34:36.099Z,66.20
2023-03-16T20:37:21.683Z,66.27
2023-03-16T20:39:54.700Z,66.20
2023-03-16T20:42:28.794Z,66.28
2023-03-16T20:45:01.703Z,66.31
2023-03-16T20:47:33.771Z,66.29
2023-03-16T20:50:06.812Z,66.31
2023-03-16T20:52:39.574Z,66.31
2023-03-16T20:55:15.914Z,66.59
2023-03-16T20:57:49.040Z,67.07
2023-03-16T21:00:28.610Z,67.66
2023-03-16T21:03:01.041Z,67.62
2023-03-16T21:05:33.951Z,67.66
2023-03-16T21:08:06.640Z,67.76
2023-03-16T21:10:38.666Z,67.77
2023-03-16T21:13:21.515Z,67.67
2023-03-16T21:15:54.652Z,67.54
2023-03-16T21:18:26.713Z,67.65
2023-03-16T21:20:58.960Z,67.57
2023-03-16T21:23:31.462Z,67.76
2023-03-16T21:26:04.427Z,67.68
2023-03-16T21:28:37.948Z,67.54
2023-03-16T21:31:09.874Z,67.72
2023-03-16T21:33:43.342Z,67.74
2023-03-16T21:36:18.237Z,67.70
2023-03-16T21:38:50.803Z,67.71
2023-03-16T21:41:22.741Z,68.06
2023-03-16T21:43:56.043Z,67.90
2023-03-16T21:46:28.165Z,67.76
2023-03-16T21:48:59.970Z,67.89
2023-03-16T21:51:32.588Z,67.92
2023-03-16T21:54:10.920Z,68.01
2023-03-16T21:56:43.096Z,67.96
2023-03-16T21:59:15.575Z,67.94
2023-03-16T22:02:01.193Z,68.05
2023-03-16T22:04:33.820Z,68.15
2023-03-16T22:07:07.073Z,68.18
2023-03-16T22:09:39.653Z,68.33
2023-03-16T22:12:14.007Z,68.42
2023-03-16T22:14:46.173Z,68.52
2023-03-16T22:17:22.291Z,68.46
2023-03-16T22:19:54.209Z,68.32
2023-03-16T22:22:26.246Z,68.44
2023-03-16T22:24:58.232Z,68.87
2023-03-16T22:27:30.504Z,68.78
2023-03-16T22:30:02.340Z,68.93
2023-03-16T22:32:35.657Z,68.98
2023-03-16T22:35:09.825Z,69.04
2023-03-16T22:37:41.658Z,68.97
2023-03-16T22:40:19.150Z,69.04
2023-03-16T22:42:51.256Z,69.26
2023-03-16T22:45:26.087Z,69.37
2023-03-16T22:47:59.270Z,69.47
2023-03-16T22:50:35.162Z,69.39
2023-03-16T22:53:08.273Z,69.46
2023-03-16T22:55:41.855Z,69.65
2023-03-16T22:58:16.561Z,69.61
2023-03-16T23:00:48.662Z,69.70
2023-03-16T23:03:22.737Z,69.78
2023-03-16T23:05:53.469Z,69.69
2023-03-16T23:08:26.764Z,69.86
2023-03-16T23:10:58.963Z,70.05
2023-03-16T23:13:31.124Z,69.93
2023-03-16T23:16:03.228Z,70.01
2023-03-16T23:18:35.222Z,70.16
2023-03-16T23:21:07.448Z,69.98
2023-03-16T23:23:39.409Z,70.21
2023-03-16T23:26:17.905Z,70.33
2023-03-16T23:28:50.778Z,70.48
2023-03-16T23:31:23.235Z,70.71
2023-03-16T23:33:55.821Z,70.81
2023-03-16T23:36:28.258Z,70.77
2023-03-16T23:39:00.364Z,70.62
2023-03-16T23:41:32.351Z,70.86
2023-03-16T23:44:04.907Z,70.79
2023-03-16T23:46:37.449Z,71.00
2023-03-16T23:49:09.231Z,71.06
2023-03-16T23:51:41.533Z,70.97
2023-03-16T23:54:17.684Z,71.08
2023-03-16T23:56:50.237Z,71.09
2023-03-16T23:59:23.632Z,71.44
